createdAt,value
2018-12-14T00:02:03.723Z,92.70
2018-12-14T00:04:32.700Z,93.13
2018-12-14T00:07:01.564Z,93.17
2018-12-14T00:09:30.424Z,93.18
2018-12-14T00:11:59.368Z,92.93
2018-12-14T00:14:28.227Z,92.95
2018-12-14T00:16:57.117Z,92.31
2018-12-14T00:19:26.118Z,92.56
2018-12-14T00:21:54.999Z,93.20
2018-12-14T00:24:23.885Z,93.04
2018-12-14T00:26:52.846Z,93.28
2018-12-14T00:29:21.715Z,93.58
2018-12-14T00:31:50.619Z,92.51
2018-12-14T00:34:19.607Z,93.63
2018-12-14T00:36:48.533Z,92.36
2018-12-14T00:39:17.393Z,93.04
2018-12-14T00:41:51.758Z,93.18
2018-12-14T00:44:17.120Z,92.75
2018-12-14T00:46:46.038Z,93.98
2018-12-14T00:49:14.991Z,94.83
2018-12-14T00:51:43.899Z,94.33
2018-12-14T00:54:12.776Z,94.11
2018-12-14T00:56:41.666Z,93.41
2018-12-14T00:59:10.580Z,93.00
2018-12-14T01:01:39.425Z,93.53
2018-12-14T01:04:08.530Z,93.89
2018-12-14T01:06:37.543Z,93.13
2018-12-14T01:09:06.756Z,93.35
2018-12-14T01:11:35.735Z,93.56
2018-12-14T01:14:04.688Z,92.90
2018-12-14T01:16:33.609Z,92.72
2018-12-14T01:19:02.653Z,92.64
2018-12-14T01:21:31.561Z,93.09
2018-12-14T01:24:00.537Z,92.18
2018-12-14T01:26:29.527Z,92.96
2018-12-14T01:28:58.417Z,93.36
2018-12-14T01:31:27.328Z,91.99
2018-12-14T01:33:56.445Z,92.77
2018-12-14T01:36:25.356Z,92.41
2018-12-14T01:38:54.210Z,92.71
2018-12-14T01:41:23.459Z,92.34
2018-12-14T01:43:52.314Z,92.21
2018-12-14T01:46:21.179Z,92.13
2018-12-14T01:48:50.113Z,91.97
2018-12-14T01:51:18.980Z,92.37
2018-12-14T01:53:47.931Z,92.50
2018-12-14T01:56:16.847Z,92.07
2018-12-14T01:58:45.729Z,91.87
2018-12-14T02:01:14.621Z,91.81
2018-12-14T02:03:43.520Z,92.71
2018-12-14T02:06:12.413Z,92.59
2018-12-14T02:08:41.299Z,91.66
2018-12-14T02:11:10.200Z,91.72
2018-12-14T02:13:39.175Z,91.70
2018-12-14T02:16:08.069Z,91.72
2018-12-14T02:18:37.001Z,92.47
2018-12-14T02:21:06.001Z,92.43
2018-12-14T02:23:35.071Z,92.66
2018-12-14T02:26:03.951Z,93.39
2018-12-14T02:28:32.831Z,92.69
2018-12-14T02:31:03.334Z,92.39
2018-12-14T02:33:32.264Z,93.84
2018-12-14T02:36:01.181Z,92.37
2018-12-14T02:38:30.051Z,92.54
2018-12-14T02:40:59.032Z,93.21
2018-12-14T02:43:28.099Z,93.59
2018-12-14T02:45:57.034Z,94.23
2018-12-14T02:48:25.916Z,93.45
2018-12-14T02:50:54.784Z,93.29
2018-12-14T02:53:23.781Z,92.66
2018-12-14T02:55:52.641Z,93.27
2018-12-14T02:58:21.739Z,93.54
2018-12-14T03:00:50.749Z,93.53
2018-12-14T03:03:19.709Z,93.66
2018-12-14T03:05:49.291Z,94.08
2018-12-14T03:08:18.189Z,93.74
2018-12-14T03:10:47.046Z,93.64
2018-12-14T03:13:15.994Z,93.21
2018-12-14T03:15:44.910Z,93.22
2018-12-14T03:18:13.809Z,93.54
2018-12-14T03:20:42.699Z,93.77
2018-12-14T03:23:11.608Z,93.76
2018-12-14T03:25:40.506Z,93.34
2018-12-14T03:28:09.467Z,92.78
2018-12-14T03:30:38.374Z,93.63
2018-12-14T03:33:07.351Z,93.16
2018-12-14T03:35:36.325Z,94.27
2018-12-14T03:38:05.230Z,93.78
2018-12-14T03:40:34.076Z,93.00
2018-12-14T03:43:03.341Z,93.73
2018-12-14T03:45:32.301Z,93.71
2018-12-14T03:48:01.175Z,92.88
2018-12-14T03:50:30.114Z,93.25
2018-12-14T03:52:58.981Z,93.38
2018-12-14T03:55:27.903Z,93.30
2018-12-14T03:57:57.029Z,92.55
2018-12-14T04:00:26.156Z,92.73
2018-12-14T04:02:55.363Z,92.15
2018-12-14T04:05:24.686Z,91.66
2018-12-14T04:07:54.002Z,91.66
2018-12-14T04:10:22.876Z,92.05
2018-12-14T04:12:51.720Z,92.44
2018-12-14T04:15:20.693Z,91.85
2018-12-14T04:17:49.781Z,91.60
2018-12-14T04:20:18.794Z,91.54
2018-12-14T04:22:47.687Z,91.32
2018-12-14T04:25:16.527Z,90.74
2018-12-14T04:27:45.392Z,91.01
2018-12-14T04:30:14.303Z,91.04
2018-12-14T04:32:43.190Z,91.84
2018-12-14T04:35:12.080Z,92.95
2018-12-14T04:37:40.970Z,92.12
2018-12-14T04:40:09.961Z,91.61
2018-12-14T04:42:39.103Z,92.06
2018-12-14T04:45:08.082Z,93.07
2018-12-14T04:47:36.987Z,94.18
2018-12-14T04:50:05.862Z,94.56
2018-12-14T04:52:34.741Z,93.95
2018-12-14T04:55:03.888Z,94.47
2018-12-14T04:57:32.746Z,94.40
2018-12-14T05:00:01.678Z,94.95
2018-12-14T05:02:30.589Z,94.26
2018-12-14T05:04:59.477Z,94.53
2018-12-14T05:07:28.359Z,94.25
2018-12-14T05:09:57.287Z,94.83
2018-12-14T05:12:26.223Z,94.06
2018-12-14T05:14:55.434Z,94.78
2018-12-14T05:17:24.487Z,95.20
2018-12-14T05:19:53.420Z,95.27
2018-12-14T05:22:22.578Z,94.89
2018-12-14T05:24:51.556Z,95.07
2018-12-14T05:27:20.688Z,94.63
2018-12-14T05:29:49.824Z,93.91
2018-12-14T05:32:18.823Z,94.59
2018-12-14T05:34:47.701Z,94.22
2018-12-14T05:37:17.242Z,94.81
2018-12-14T05:39:46.092Z,93.98
2018-12-14T05:42:15.013Z,93.62
2018-12-14T05:44:43.982Z,93.88
2018-12-14T05:47:12.873Z,94.32
2018-12-14T05:49:41.740Z,94.73
2018-12-14T05:52:10.626Z,94.39
2018-12-14T05:54:39.515Z,94.57
2018-12-14T05:57:08.488Z,94.41
2018-12-14T05:59:37.469Z,94.80
2018-12-14T06:02:06.378Z,94.12
2018-12-14T06:04:35.312Z,93.56
2018-12-14T06:07:04.311Z,93.83
2018-12-14T06:09:33.192Z,93.11
2018-12-14T06:12:02.756Z,93.04
2018-12-14T06:14:31.687Z,94.30
2018-12-14T06:17:00.566Z,94.27
2018-12-14T06:19:29.434Z,94.61
2018-12-14T06:21:58.365Z,94.06
2018-12-14T06:24:27.844Z,94.36
2018-12-14T06:26:56.717Z,94.19
2018-12-14T06:29:25.639Z,93.19
2018-12-14T06:31:54.519Z,93.73
2018-12-14T06:34:23.414Z,93.58
2018-12-14T06:36:53.750Z,93.42
2018-12-14T06:39:22.824Z,93.11
2018-12-14T06:41:52.032Z,92.56
2018-12-14T06:44:20.920Z,93.91
2018-12-14T06:46:49.812Z,94.53
2018-12-14T06:49:18.719Z,93.19
2018-12-14T06:51:47.665Z,93.17
2018-12-14T06:54:16.702Z,93.46
2018-12-14T06:56:45.608Z,92.65
2018-12-14T06:59:14.487Z,92.62
2018-12-14T07:01:43.389Z,92.31
2018-12-14T07:04:12.271Z,92.72
2018-12-14T07:06:41.179Z,92.97
2018-12-14T07:09:10.106Z,92.73
2018-12-14T07:11:39.033Z,93.28
2018-12-14T07:14:07.997Z,92.91
2018-12-14T07:16:36.991Z,93.23
2018-12-14T07:19:05.895Z,93.57
2018-12-14T07:21:35.005Z,92.78
2018-12-14T07:24:03.985Z,93.82
2018-12-14T07:26:33.215Z,92.71
2018-12-14T07:29:02.236Z,93.18
2018-12-14T07:31:31.468Z,92.51
2018-12-14T07:34:00.376Z,93.05
2018-12-14T07:36:29.208Z,92.82
2018-12-14T07:38:58.187Z,92.96
2018-12-14T07:41:28.203Z,93.54
2018-12-14T07:43:57.282Z,94.60
2018-12-14T07:46:26.185Z,94.18
2018-12-14T07:48:55.052Z,94.11
2018-12-14T07:51:25.026Z,93.91
2018-12-14T07:53:54.126Z,93.13
2018-12-14T07:56:23.119Z,93.92
2018-12-14T07:58:52.198Z,93.87
2018-12-14T08:01:21.178Z,92.81
2018-12-14T08:03:50.144Z,92.84
2018-12-14T08:06:19.027Z,93.16
2018-12-14T08:08:47.899Z,93.04
2018-12-14T08:11:16.799Z,92.53
2018-12-14T08:13:45.681Z,92.54
2018-12-14T08:16:14.579Z,92.85
2018-12-14T08:18:43.463Z,92.59
2018-12-14T08:21:12.663Z,91.99
2018-12-14T08:23:41.620Z,92.08
2018-12-14T08:26:10.501Z,92.04
2018-12-14T08:28:39.377Z,91.35
2018-12-14T08:31:08.244Z,91.70
2018-12-14T08:33:37.105Z,91.04
2018-12-14T08:36:05.995Z,91.33
2018-12-14T08:38:34.858Z,91.55
2018-12-14T08:41:03.724Z,90.58
2018-12-14T08:43:32.606Z,90.77
2018-12-14T08:46:01.506Z,89.81
2018-12-14T08:48:30.553Z,89.51
2018-12-14T08:50:59.450Z,89.30
2018-12-14T08:53:28.546Z,89.36
2018-12-14T08:55:57.520Z,89.34
2018-12-14T08:58:32.803Z,88.89
2018-12-14T09:01:01.673Z,89.26
2018-12-14T09:03:30.584Z,88.72
2018-12-14T09:05:59.484Z,88.44
2018-12-14T09:08:28.474Z,89.27
2018-12-14T09:10:57.381Z,88.21
2018-12-14T09:13:26.261Z,88.38
2018-12-14T09:15:55.219Z,87.70
2018-12-14T09:18:24.155Z,88.57
2018-12-14T09:20:53.051Z,87.86
2018-12-14T09:23:22.043Z,87.86
2018-12-14T09:25:51.021Z,87.83
2018-12-14T09:28:19.964Z,87.67
2018-12-14T09:30:48.857Z,87.70
2018-12-14T09:33:17.739Z,87.40
2018-12-14T09:35:46.635Z,87.32
2018-12-14T09:38:15.605Z,87.63
2018-12-14T09:40:44.589Z,87.76
2018-12-14T09:43:13.485Z,88.54
2018-12-14T09:45:42.468Z,88.31
2018-12-14T09:48:11.351Z,87.86
2018-12-14T09:50:40.302Z,87.52
2018-12-14T09:53:11.149Z,87.89
2018-12-14T09:55:40.061Z,87.80
2018-12-14T09:58:08.906Z,87.60
2018-12-14T10:00:37.821Z,87.94
2018-12-14T10:03:06.669Z,87.67
2018-12-14T10:05:35.550Z,88.48
2018-12-14T10:08:04.486Z,88.49
2018-12-14T10:10:33.407Z,88.56
2018-12-14T10:13:02.262Z,87.51
2018-12-14T10:15:31.635Z,87.81
2018-12-14T10:18:00.512Z,87.38
2018-12-14T10:20:29.406Z,87.66
2018-12-14T10:22:58.294Z,87.04
2018-12-14T10:25:27.268Z,87.21
2018-12-14T10:27:56.150Z,86.24
2018-12-14T10:30:25.046Z,86.81
2018-12-14T10:32:53.909Z,87.27
2018-12-14T10:35:22.786Z,87.93
2018-12-14T10:37:51.696Z,87.55
2018-12-14T10:40:20.593Z,88.64
2018-12-14T10:42:49.482Z,87.96
2018-12-14T10:45:18.619Z,88.05
2018-12-14T10:47:47.489Z,88.89
2018-12-14T10:50:16.370Z,89.85
2018-12-14T10:52:45.278Z,88.63
2018-12-14T10:55:14.134Z,88.16
2018-12-14T10:57:43.285Z,87.87
2018-12-14T11:00:20.981Z,88.11
2018-12-14T11:02:50.018Z,88.16
2018-12-14T11:05:19.032Z,87.78
2018-12-14T11:07:47.871Z,87.54
2018-12-14T11:10:16.737Z,87.33
2018-12-14T11:12:45.669Z,88.36
2018-12-14T11:15:14.562Z,87.32
2018-12-14T11:17:43.486Z,87.45
2018-12-14T11:20:12.436Z,86.34
2018-12-14T11:22:41.312Z,86.79
2018-12-14T11:25:10.243Z,86.33
2018-12-14T11:27:39.294Z,86.06
2018-12-14T11:30:09.884Z,86.85
2018-12-14T11:32:38.744Z,86.51
2018-12-14T11:35:07.744Z,85.92
2018-12-14T11:37:36.615Z,85.26
2018-12-14T11:40:07.551Z,86.20
2018-12-14T11:42:36.424Z,85.97
2018-12-14T11:45:07.084Z,85.25
2018-12-14T11:47:35.947Z,85.51
2018-12-14T11:50:06.296Z,87.06
2018-12-14T11:52:35.153Z,87.49
2018-12-14T11:55:04.327Z,87.93
2018-12-14T11:57:33.432Z,87.63
2018-12-14T12:00:02.588Z,87.62
2018-12-14T12:02:31.949Z,87.64
2018-12-14T12:05:00.826Z,88.81
2018-12-14T12:07:40.397Z,88.26
2018-12-14T12:10:10.682Z,88.16
2018-12-14T12:12:39.825Z,88.14
2018-12-14T12:15:09.666Z,88.75
2018-12-14T12:17:39.594Z,88.04
2018-12-14T12:20:09.522Z,88.24
2018-12-14T12:22:38.376Z,87.83
2018-12-14T12:25:07.288Z,87.58
2018-12-14T12:27:36.202Z,87.09
2018-12-14T12:30:05.543Z,87.90
2018-12-14T12:32:34.474Z,87.19
2018-12-14T12:35:03.451Z,87.59
2018-12-14T12:37:32.313Z,87.61
2018-12-14T12:40:01.308Z,87.89
2018-12-14T12:42:30.191Z,88.02
2018-12-14T12:44:59.821Z,88.09
2018-12-14T12:47:28.789Z,88.38
2018-12-14T12:49:57.688Z,87.92
2018-12-14T12:52:26.620Z,87.42
2018-12-14T12:54:55.484Z,87.53
2018-12-14T12:57:24.590Z,87.22
2018-12-14T12:59:53.476Z,88.61
2018-12-14T13:02:22.432Z,88.38
2018-12-14T13:04:51.513Z,88.75
2018-12-14T13:07:20.406Z,88.35
2018-12-14T13:09:49.320Z,88.32
2018-12-14T13:12:18.216Z,88.20
2018-12-14T13:14:47.139Z,88.21
2018-12-14T13:17:16.041Z,87.73
2018-12-14T13:19:44.997Z,87.71
2018-12-14T13:22:13.900Z,87.94
2018-12-14T13:24:42.828Z,88.39
2018-12-14T13:27:11.669Z,88.35
2018-12-14T13:29:40.547Z,87.92
2018-12-14T13:32:09.448Z,88.20
2018-12-14T13:34:38.316Z,87.55
2018-12-14T13:37:07.334Z,88.12
2018-12-14T13:39:36.282Z,87.53
2018-12-14T13:42:05.272Z,87.36
2018-12-14T13:44:34.533Z,87.77
2018-12-14T13:47:03.513Z,87.93
2018-12-14T13:49:32.400Z,87.93
2018-12-14T13:52:01.303Z,87.44
2018-12-14T13:54:30.193Z,87.37
2018-12-14T13:56:59.075Z,87.21
2018-12-14T13:59:28.008Z,88.07
2018-12-14T14:01:56.885Z,87.00
2018-12-14T14:04:25.765Z,87.03
2018-12-14T14:06:54.651Z,88.25
2018-12-14T14:09:24.138Z,87.85
2018-12-14T14:11:53.038Z,87.64
2018-12-14T14:14:21.887Z,88.11
2018-12-14T14:16:51.473Z,88.10
2018-12-14T14:19:20.430Z,87.17
2018-12-14T14:21:49.349Z,88.04
2018-12-14T14:24:18.217Z,88.40
2018-12-14T14:26:47.081Z,88.53
2018-12-14T14:29:15.973Z,88.73
2018-12-14T14:31:44.858Z,87.71
2018-12-14T14:34:13.769Z,88.39
2018-12-14T14:36:42.694Z,88.16
2018-12-14T14:39:11.561Z,87.29
2018-12-14T14:41:40.550Z,87.41
2018-12-14T14:44:09.460Z,87.70
2018-12-14T14:46:38.368Z,86.88
2018-12-14T14:49:07.226Z,86.37
2018-12-14T14:51:36.176Z,86.21
2018-12-14T14:54:05.152Z,86.48
2018-12-14T14:56:34.127Z,87.11
2018-12-14T14:59:03.007Z,86.83
2018-12-14T15:01:31.903Z,86.99
2018-12-14T15:04:00.783Z,87.26
2018-12-14T15:06:29.678Z,86.21
2018-12-14T15:08:58.801Z,86.94
2018-12-14T15:11:27.770Z,87.45
2018-12-14T15:13:56.659Z,87.32
2018-12-14T15:16:25.615Z,86.94
2018-12-14T15:18:54.554Z,86.45
2018-12-14T15:21:23.483Z,86.92
2018-12-14T15:23:52.403Z,87.20
2018-12-14T15:26:21.271Z,87.37
2018-12-14T15:28:50.156Z,87.83
2018-12-14T15:31:19.058Z,87.86
2018-12-14T15:33:47.969Z,88.29
2018-12-14T15:36:16.814Z,87.88
2018-12-14T15:38:46.051Z,86.93
2018-12-14T15:41:14.913Z,88.16
2018-12-14T15:43:43.863Z,88.58
2018-12-14T15:46:12.815Z,88.01
2018-12-14T15:48:41.814Z,87.94
2018-12-14T15:51:10.972Z,87.51
2018-12-14T15:53:39.898Z,87.35
2018-12-14T15:56:09.861Z,87.72
2018-12-14T15:58:38.782Z,87.71
2018-12-14T16:01:07.923Z,87.55
2018-12-14T16:03:36.947Z,86.50
2018-12-14T16:06:05.872Z,87.01
2018-12-14T16:08:34.804Z,86.81
2018-12-14T16:11:03.744Z,85.99
2018-12-14T16:13:32.827Z,86.35
2018-12-14T16:16:01.811Z,86.67
2018-12-14T16:18:30.773Z,87.18
2018-12-14T16:20:59.755Z,86.65
2018-12-14T16:23:28.676Z,86.66
2018-12-14T16:25:57.663Z,86.78
2018-12-14T16:28:26.604Z,86.78
2018-12-14T16:30:55.590Z,86.62
2018-12-14T16:33:24.522Z,86.65
2018-12-14T16:35:53.553Z,86.21
2018-12-14T16:38:22.409Z,87.37
2018-12-14T16:40:51.306Z,86.60
2018-12-14T16:43:20.192Z,86.98
2018-12-14T16:45:49.082Z,87.22
2018-12-14T16:48:17.990Z,88.32
2018-12-14T16:50:46.901Z,87.55
2018-12-14T16:53:15.825Z,87.08
2018-12-14T16:55:44.820Z,87.62
2018-12-14T16:58:13.768Z,87.02
2018-12-14T17:00:42.754Z,88.27
2018-12-14T17:03:11.641Z,88.15
2018-12-14T17:05:40.551Z,88.28
2018-12-14T17:08:09.535Z,87.10
2018-12-14T17:10:38.612Z,87.89
2018-12-14T17:13:07.488Z,86.59
2018-12-14T17:15:36.474Z,87.48
2018-12-14T17:18:05.378Z,87.20
2018-12-14T17:20:34.261Z,87.44
2018-12-14T17:23:03.188Z,86.94
2018-12-14T17:25:32.052Z,86.89
2018-12-14T17:28:00.978Z,87.36
2018-12-14T17:30:29.899Z,86.91
2018-12-14T17:32:58.805Z,87.59
2018-12-14T17:35:27.785Z,87.69
2018-12-14T17:37:56.681Z,87.46
2018-12-14T17:40:25.640Z,88.15
2018-12-14T17:42:54.834Z,87.71
2018-12-14T17:45:23.684Z,87.07
2018-12-14T17:47:52.626Z,87.62
2018-12-14T17:50:21.572Z,87.65
2018-12-14T17:52:50.477Z,87.09
2018-12-14T17:55:19.400Z,86.28
2018-12-14T17:57:48.401Z,86.67
2018-12-14T18:00:17.366Z,87.32
2018-12-14T18:02:46.290Z,86.88
2018-12-14T18:05:15.190Z,86.97
2018-12-14T18:07:44.166Z,87.30
2018-12-14T18:10:13.085Z,87.07
2018-12-14T18:12:42.953Z,87.55
2018-12-14T18:15:11.878Z,86.51
2018-12-14T18:17:40.785Z,86.56
2018-12-14T18:20:09.839Z,87.09
2018-12-14T18:22:39.030Z,87.17
2018-12-14T18:25:08.443Z,87.36
2018-12-14T18:27:37.418Z,87.67
2018-12-14T18:30:07.910Z,86.85
2018-12-14T18:32:36.825Z,87.08
2018-12-14T18:35:07.098Z,86.45
2018-12-14T18:37:35.971Z,87.18
2018-12-14T18:40:06.341Z,86.78
2018-12-14T18:42:35.284Z,87.11
2018-12-14T18:45:04.923Z,87.10
2018-12-14T18:47:33.791Z,87.57
2018-12-14T18:50:02.749Z,88.16
2018-12-14T18:52:31.643Z,88.48
2018-12-14T18:55:00.586Z,88.01
2018-12-14T18:57:29.472Z,87.99
2018-12-14T18:59:58.380Z,87.48
2018-12-14T19:02:27.382Z,87.41
2018-12-14T19:04:56.311Z,87.70
2018-12-14T19:07:25.205Z,87.50
2018-12-14T19:09:54.135Z,88.62
2018-12-14T19:12:23.211Z,87.43
2018-12-14T19:14:52.183Z,87.38
2018-12-14T19:17:21.137Z,87.61
2018-12-14T19:19:50.025Z,87.97
2018-12-14T19:22:18.970Z,87.90
2018-12-14T19:24:47.879Z,87.72
2018-12-14T19:27:16.767Z,87.20
2018-12-14T19:29:45.735Z,86.13
2018-12-14T19:32:20.610Z,87.83
2018-12-14T19:34:49.624Z,87.25
2018-12-14T19:37:18.527Z,87.75
2018-12-14T19:39:47.452Z,87.25
2018-12-14T19:42:16.358Z,87.47
2018-12-14T19:44:50.460Z,87.10
2018-12-14T19:47:19.374Z,86.73
2018-12-14T19:49:48.326Z,87.56
2018-12-14T19:52:17.310Z,87.03
2018-12-14T19:54:46.247Z,86.77
2018-12-14T19:57:15.271Z,85.88
2018-12-14T19:59:44.238Z,85.91
2018-12-14T20:02:13.267Z,86.72
2018-12-14T20:04:42.181Z,86.40
2018-12-14T20:07:11.192Z,85.94
2018-12-14T20:09:40.066Z,86.12
2018-12-14T20:12:08.985Z,85.44
2018-12-14T20:14:37.999Z,85.55
2018-12-14T20:17:06.983Z,86.12
2018-12-14T20:19:36.012Z,85.26
2018-12-14T20:22:05.295Z,86.32
2018-12-14T20:24:34.302Z,85.73
2018-12-14T20:27:03.827Z,85.74
2018-12-14T20:29:32.824Z,85.56
2018-12-14T20:32:01.782Z,85.02
2018-12-14T20:34:30.700Z,85.91
2018-12-14T20:36:59.683Z,85.92
2018-12-14T20:39:28.612Z,85.87
2018-12-14T20:41:57.612Z,85.50
2018-12-14T20:44:26.577Z,84.59
2018-12-14T20:46:55.500Z,84.80
2018-12-14T20:49:24.505Z,84.71
2018-12-14T20:51:53.460Z,84.61
2018-12-14T20:54:22.414Z,85.06
2018-12-14T20:56:51.830Z,85.02
2018-12-14T20:59:20.856Z,84.67
2018-12-14T21:01:50.298Z,85.12
2018-12-14T21:04:19.262Z,84.43
2018-12-14T21:06:48.173Z,85.11
2018-12-14T21:09:17.200Z,85.66
2018-12-14T21:11:46.070Z,85.25
2018-12-14T21:14:15.495Z,84.53
2018-12-14T21:16:44.433Z,84.34
2018-12-14T21:19:13.340Z,84.83
2018-12-14T21:21:42.287Z,84.78
2018-12-14T21:24:11.215Z,84.70
2018-12-14T21:26:40.131Z,84.16
2018-12-14T21:29:09.091Z,84.79
2018-12-14T21:31:37.978Z,84.83
2018-12-14T21:34:06.877Z,84.09
2018-12-14T21:36:35.794Z,84.30
2018-12-14T21:39:05.803Z,84.58
2018-12-14T21:41:34.714Z,83.95
2018-12-14T21:44:03.684Z,84.48
2018-12-14T21:46:32.897Z,84.15
2018-12-14T21:49:01.853Z,83.96
2018-12-14T21:51:30.761Z,84.84
2018-12-14T21:53:59.749Z,83.99
2018-12-14T21:56:28.641Z,84.21
2018-12-14T21:58:57.552Z,84.59
2018-12-14T22:01:26.486Z,84.41
2018-12-14T22:03:55.454Z,84.50
2018-12-14T22:06:24.384Z,84.47
2018-12-14T22:08:53.271Z,84.56
2018-12-14T22:11:22.159Z,84.81
2018-12-14T22:13:51.119Z,84.86
2018-12-14T22:16:20.019Z,84.87
2018-12-14T22:18:48.901Z,84.79
2018-12-14T22:21:17.800Z,85.20
2018-12-14T22:23:46.725Z,85.00
2018-12-14T22:26:15.756Z,84.87
2018-12-14T22:28:44.781Z,84.86
2018-12-14T22:31:13.806Z,85.03
2018-12-14T22:33:43.075Z,84.37
2018-12-14T22:36:12.177Z,84.38
2018-12-14T22:38:41.188Z,84.85
2018-12-14T22:41:10.201Z,84.33
2018-12-14T22:43:39.211Z,83.71
2018-12-14T22:46:08.271Z,84.53
2018-12-14T22:48:37.278Z,84.65
2018-12-14T22:51:06.259Z,84.33
2018-12-14T22:53:35.300Z,84.73
2018-12-14T22:56:04.379Z,83.89
2018-12-14T22:58:33.434Z,84.11
2018-12-14T23:01:02.574Z,83.91
2018-12-14T23:03:31.624Z,83.88
2018-12-14T23:06:00.656Z,83.82
2018-12-14T23:08:29.668Z,84.02
2018-12-14T23:10:58.682Z,83.59
2018-12-14T23:13:27.731Z,84.22
2018-12-14T23:15:56.861Z,83.29
2018-12-14T23:18:25.727Z,83.47
2018-12-14T23:20:54.596Z,83.68
2018-12-14T23:23:25.811Z,84.16
2018-12-14T23:25:54.935Z,83.46
2018-12-14T23:28:34.195Z,83.67
2018-12-14T23:31:04.232Z,84.21
2018-12-14T23:33:39.789Z,85.11
2018-12-14T23:36:12.299Z,84.63
2018-12-14T23:38:41.157Z,84.15
2018-12-14T23:41:10.125Z,84.78
2018-12-14T23:43:39.053Z,84.76
2018-12-14T23:46:08.184Z,85.00
2018-12-14T23:48:37.112Z,85.18
2018-12-14T23:51:06.034Z,84.98
2018-12-14T23:53:34.928Z,84.43
2018-12-14T23:56:03.901Z,84.23
2018-12-14T23:58:32.829Z,83.95
